createdAt,value
2017-10-30T11:08:25.212Z,12.40
2017-10-30T11:09:25.117Z,12.40
2017-10-30T11:11:17.978Z,12.36
2017-10-30T11:12:17.969Z,12.35
2017-10-30T11:14:10.869Z,12.25
2017-10-30T11:15:10.840Z,12.27
2017-10-30T11:17:03.716Z,12.20
2017-10-30T11:18:03.715Z,11.86
2017-10-30T11:19:56.599Z,12.03
2017-10-30T11:20:56.577Z,11.99
2017-10-30T11:22:49.447Z,11.99
2017-10-30T11:23:49.441Z,11.78
2017-10-30T11:25:42.325Z,11.95
2017-10-30T11:26:42.300Z,12.00
2017-10-30T11:28:35.203Z,12.21
2017-10-30T11:29:35.174Z,12.36
2017-10-30T11:31:28.044Z,12.37
2017-10-30T11:32:28.037Z,12.53
2017-10-30T11:34:20.975Z,12.39
2017-10-30T11:35:20.900Z,12.43
2017-10-30T11:37:13.775Z,12.61
2017-10-30T11:38:13.769Z,12.73
2017-10-30T11:40:06.653Z,12.40
2017-10-30T11:41:06.628Z,12.29
2017-10-30T11:42:59.495Z,12.29
2017-10-30T11:43:59.486Z,12.42
2017-10-30T11:45:52.400Z,12.39
2017-10-30T11:46:52.380Z,12.39
2017-10-30T11:48:45.263Z,12.42
2017-10-30T11:49:45.239Z,12.32
2017-10-30T11:51:38.105Z,12.20
2017-10-30T11:52:38.098Z,12.18
2017-10-30T11:54:30.994Z,12.09
2017-10-30T11:55:30.964Z,12.04
2017-10-30T11:57:23.836Z,12.06
2017-10-30T11:58:23.828Z,12.18
2017-10-30T12:00:16.715Z,12.32
2017-10-30T12:01:16.696Z,12.20
2017-10-30T12:03:09.564Z,12.06
2017-10-30T12:04:09.557Z,12.29
2017-10-30T12:06:03.447Z,12.50
2017-10-30T12:07:03.422Z,12.54
2017-10-30T12:08:56.313Z,12.55
2017-10-30T12:09:56.284Z,12.83
2017-10-30T12:11:49.151Z,12.75
2017-10-30T12:12:49.142Z,12.75
2017-10-30T12:14:42.032Z,12.79
2017-10-30T12:15:42.009Z,12.80
2017-10-30T12:17:34.874Z,12.64
2017-10-30T12:18:34.868Z,12.70
2017-10-30T12:20:27.755Z,12.37
2017-10-30T12:21:27.728Z,12.28
2017-10-30T12:23:20.599Z,12.40
2017-10-30T12:24:20.594Z,12.37
2017-10-30T12:26:13.486Z,12.47
2017-10-30T12:27:13.461Z,12.75
2017-10-30T12:29:06.345Z,13.00
2017-10-30T12:30:06.326Z,12.97
2017-10-30T12:31:59.187Z,12.68
2017-10-30T12:32:59.179Z,12.36
2017-10-30T12:34:52.066Z,12.35
2017-10-30T12:35:52.041Z,12.29
2017-10-30T12:37:44.910Z,12.28
2017-10-30T12:38:44.904Z,12.20
2017-10-30T12:40:37.793Z,12.27
2017-10-30T12:41:37.760Z,12.28
2017-10-30T12:43:30.734Z,12.20
2017-10-30T12:44:30.729Z,12.03
2017-10-30T12:46:23.613Z,12.24
2017-10-30T12:47:23.591Z,12.20
2017-10-30T12:49:16.484Z,12.24
2017-10-30T12:50:16.457Z,12.39
2017-10-30T12:52:09.327Z,12.47
2017-10-30T12:53:09.315Z,12.67
2017-10-30T12:55:02.203Z,12.72
2017-10-30T12:56:02.173Z,12.70
2017-10-30T12:57:55.054Z,12.70
2017-10-30T12:58:55.055Z,12.55
2017-10-30T13:00:47.928Z,12.20
2017-10-30T13:01:47.900Z,12.22
2017-10-30T13:03:40.797Z,12.18
2017-10-30T13:04:40.770Z,12.13
2017-10-30T13:06:33.656Z,11.95
2017-10-30T13:07:33.633Z,11.90
2017-10-30T13:09:26.520Z,11.73
2017-10-30T13:10:26.497Z,11.77
2017-10-30T13:12:19.369Z,11.84
2017-10-30T13:13:19.353Z,11.78
2017-10-30T13:15:12.248Z,11.81
2017-10-30T13:16:12.224Z,11.87
2017-10-30T13:18:05.114Z,12.09
2017-10-30T13:19:05.109Z,12.09
2017-10-30T13:20:57.967Z,12.29
2017-10-30T13:21:57.941Z,12.25
2017-10-30T13:23:50.814Z,12.20
2017-10-30T13:24:50.810Z,12.18
2017-10-30T13:26:43.699Z,12.15
2017-10-30T13:27:43.675Z,12.00
2017-10-30T13:29:36.552Z,12.03
2017-10-30T13:30:36.525Z,12.04
2017-10-30T13:32:29.398Z,12.00
2017-10-30T13:33:29.389Z,11.91
2017-10-30T13:35:22.277Z,12.03
2017-10-30T13:36:22.252Z,12.03
2017-10-30T13:38:15.132Z,11.87
2017-10-30T13:39:15.137Z,11.91
2017-10-30T13:41:08.015Z,12.12
2017-10-30T13:42:08.005Z,12.06
2017-10-30T13:44:00.895Z,12.09
2017-10-30T13:45:00.867Z,12.02
2017-10-30T13:46:53.733Z,11.86
2017-10-30T13:47:53.726Z,11.75
2017-10-30T13:49:46.621Z,11.77
2017-10-30T13:50:46.600Z,11.75
2017-10-30T13:52:39.461Z,11.77
2017-10-30T13:53:39.453Z,11.81
2017-10-30T13:55:32.343Z,11.72
2017-10-30T13:56:32.319Z,11.73
2017-10-30T13:58:25.185Z,11.60
2017-10-30T13:59:25.197Z,11.57
2017-10-30T14:01:18.063Z,11.54
2017-10-30T14:02:18.048Z,11.55
2017-10-30T14:04:11.018Z,11.51
2017-10-30T14:05:10.913Z,11.57
2017-10-30T14:07:03.777Z,11.55
2017-10-30T14:08:03.769Z,11.52
2017-10-30T14:09:56.662Z,11.57
2017-10-30T14:10:56.634Z,11.41
2017-10-30T14:12:49.505Z,11.40
2017-10-30T14:13:49.498Z,11.43
2017-10-30T14:15:42.393Z,11.36
2017-10-30T14:16:42.366Z,11.41
2017-10-30T14:18:35.243Z,11.43
2017-10-30T14:19:35.257Z,11.35
2017-10-30T14:21:28.121Z,11.37
2017-10-30T14:22:28.094Z,11.41
2017-10-30T14:24:20.982Z,11.44
2017-10-30T14:25:20.955Z,11.45
2017-10-30T14:27:13.832Z,11.45
2017-10-30T14:28:13.812Z,11.41
2017-10-30T14:30:06.701Z,11.37
2017-10-30T14:31:06.674Z,11.35
2017-10-30T14:32:59.541Z,11.32
2017-10-30T14:33:59.545Z,11.37
2017-10-30T14:35:52.421Z,11.35
2017-10-30T14:36:52.395Z,11.41
2017-10-30T14:38:45.254Z,11.44
2017-10-30T14:39:45.252Z,11.37
2017-10-30T14:41:38.140Z,11.44
2017-10-30T14:42:38.113Z,11.43
2017-10-30T14:44:31.002Z,11.41
2017-10-30T14:45:30.974Z,11.26
2017-10-30T14:47:23.871Z,11.40
2017-10-30T14:48:23.860Z,11.41
2017-10-30T14:50:16.748Z,11.37
2017-10-30T14:51:16.724Z,11.36
2017-10-30T14:53:09.587Z,11.36
2017-10-30T14:54:09.585Z,11.35
2017-10-30T14:56:02.468Z,11.40
2017-10-30T14:57:02.451Z,11.44
2017-10-30T14:58:55.316Z,11.37
2017-10-30T14:59:55.309Z,11.36
2017-10-30T15:01:48.202Z,11.36
2017-10-30T15:02:48.182Z,11.41
2017-10-30T15:04:41.071Z,11.35
2017-10-30T15:05:41.041Z,11.27
2017-10-30T15:07:33.916Z,11.23
2017-10-30T15:08:33.908Z,11.17
2017-10-30T15:10:26.795Z,11.12
2017-10-30T15:11:26.768Z,11.15
2017-10-30T15:13:19.631Z,11.15
2017-10-30T15:14:19.625Z,11.12
2017-10-30T15:16:12.511Z,11.12
2017-10-30T15:17:12.485Z,11.07
2017-10-30T15:19:05.352Z,11.02
2017-10-30T15:20:05.346Z,10.92
2017-10-30T15:21:58.269Z,10.81
2017-10-30T15:22:58.219Z,10.75
2017-10-30T15:24:51.111Z,10.84
2017-10-30T15:25:51.075Z,10.75
2017-10-30T15:27:43.945Z,10.76
2017-10-30T15:28:43.940Z,10.74
2017-10-30T15:30:36.820Z,10.69
2017-10-30T15:31:36.794Z,10.67
2017-10-30T15:33:29.664Z,10.69
2017-10-30T15:34:29.656Z,10.67
2017-10-30T15:36:22.549Z,10.72
2017-10-30T15:37:22.519Z,10.74
2017-10-30T15:39:15.381Z,10.71
2017-10-30T15:40:15.381Z,10.76
2017-10-30T15:42:08.263Z,10.79
2017-10-30T15:43:08.231Z,10.75
2017-10-30T15:45:01.118Z,10.67
2017-10-30T15:46:01.098Z,10.63
2017-10-30T15:47:53.955Z,10.61
2017-10-30T15:48:53.957Z,10.63
2017-10-30T15:50:46.833Z,10.60
2017-10-30T15:51:46.812Z,10.61
2017-10-30T15:53:39.682Z,10.46
2017-10-30T15:54:39.667Z,10.51
2017-10-30T15:56:32.546Z,10.48
2017-10-30T15:57:32.526Z,10.48
2017-10-30T15:59:25.394Z,10.34
2017-10-30T16:00:25.394Z,10.30
2017-10-30T16:02:18.273Z,10.22
2017-10-30T16:03:18.249Z,10.30
2017-10-30T16:05:11.132Z,10.28
2017-10-30T16:06:11.108Z,10.25
2017-10-30T16:08:03.981Z,10.19
2017-10-30T16:09:03.978Z,10.19
2017-10-30T16:10:56.855Z,10.22
2017-10-30T16:11:56.834Z,10.17
2017-10-30T16:13:49.695Z,10.31
2017-10-30T16:14:49.690Z,10.25
2017-10-30T16:16:42.572Z,10.23
2017-10-30T16:17:42.544Z,10.25
2017-10-30T16:19:35.416Z,10.31
2017-10-30T16:20:35.399Z,10.31
2017-10-30T16:22:28.285Z,10.28
2017-10-30T16:23:28.263Z,10.22
2017-10-30T16:25:21.153Z,10.20
2017-10-30T16:26:21.122Z,10.22
2017-10-30T16:28:13.985Z,10.25
2017-10-30T16:29:13.981Z,10.26
2017-10-30T16:31:06.872Z,10.16
2017-10-30T16:32:06.838Z,10.28
2017-10-30T16:33:59.703Z,10.26
2017-10-30T16:34:59.693Z,10.26
2017-10-30T16:36:53.576Z,10.26
2017-10-30T16:37:53.543Z,10.22
2017-10-30T16:39:46.440Z,10.26
2017-10-30T16:40:46.413Z,10.17
2017-10-30T16:42:39.282Z,10.23
2017-10-30T16:43:39.270Z,10.20
2017-10-30T16:45:35.163Z,10.22
2017-10-30T16:46:33.135Z,10.15
2017-10-30T16:47:33.120Z,10.15
2017-10-30T16:48:33.113Z,10.16
2017-10-30T16:49:33.109Z,10.16
2017-10-30T16:50:33.110Z,10.13
2017-10-30T16:51:33.097Z,10.10
2017-10-30T16:52:33.095Z,10.13
2017-10-30T16:53:33.086Z,10.04
2017-10-30T16:54:33.085Z,10.05
2017-10-30T16:55:33.081Z,10.09
2017-10-30T16:56:33.067Z,10.09
2017-10-30T16:57:33.064Z,10.12
2017-10-30T16:58:33.056Z,10.05
2017-10-30T16:59:33.054Z,10.09
2017-10-30T17:00:33.045Z,9.99
2017-10-30T17:01:33.043Z,9.94
2017-10-30T17:02:33.037Z,9.99
2017-10-30T17:03:33.029Z,9.98
2017-10-30T17:04:33.025Z,10.05
2017-10-30T17:05:33.018Z,10.01
2017-10-30T17:06:33.016Z,9.97
2017-10-30T17:07:33.007Z,9.94
2017-10-30T17:08:32.998Z,9.87
2017-10-30T17:09:33.030Z,9.98
2017-10-30T17:10:32.993Z,9.94
2017-10-30T17:11:32.982Z,9.92
2017-10-30T17:12:32.987Z,9.92
2017-10-30T17:13:32.975Z,9.89
2017-10-30T17:14:32.966Z,9.94
2017-10-30T17:15:33.650Z,9.95
2017-10-30T17:16:32.953Z,9.83
2017-10-30T17:17:32.951Z,9.84
2017-10-30T17:18:32.940Z,9.86
2017-10-30T17:19:32.940Z,9.82
2017-10-30T17:20:32.928Z,9.72
2017-10-30T17:21:32.922Z,9.79
2017-10-30T17:22:32.918Z,9.73
2017-10-30T17:23:32.911Z,9.82
2017-10-30T17:24:32.908Z,9.82
2017-10-30T17:25:32.902Z,9.84
2017-10-30T17:26:32.896Z,9.82
2017-10-30T17:27:32.889Z,9.83
2017-10-30T17:28:32.881Z,9.73
2017-10-30T17:29:32.876Z,9.72
2017-10-30T17:30:32.871Z,9.69
2017-10-30T17:31:32.867Z,9.69
2017-10-30T17:32:32.858Z,9.69
2017-10-30T17:33:32.861Z,9.72
2017-10-30T17:34:32.851Z,9.72
2017-10-30T17:35:32.843Z,9.64
2017-10-30T17:36:32.836Z,9.69
2017-10-30T17:37:32.832Z,9.73
2017-10-30T17:38:32.827Z,9.72
2017-10-30T17:39:32.822Z,9.74
2017-10-30T17:40:32.812Z,9.73
2017-10-30T17:41:32.806Z,9.72
2017-10-30T17:42:32.801Z,9.69
2017-10-30T17:43:32.796Z,9.79
2017-10-30T17:44:32.791Z,9.59
2017-10-30T17:45:32.789Z,9.72
2017-10-30T17:46:32.793Z,9.73
2017-10-30T17:47:32.773Z,9.69
2017-10-30T17:48:32.772Z,9.74
2017-10-30T17:49:32.759Z,9.74
2017-10-30T17:50:32.753Z,9.73
2017-10-30T17:51:32.750Z,9.72
2017-10-30T17:52:32.734Z,9.73
2017-10-30T17:53:32.736Z,9.77
2017-10-30T17:54:32.733Z,9.74
2017-10-30T17:55:32.728Z,9.73
2017-10-30T17:56:32.717Z,9.68
2017-10-30T17:57:32.714Z,9.72
2017-10-30T17:58:32.705Z,9.69
2017-10-30T17:59:32.703Z,9.74
2017-10-30T18:00:32.693Z,9.66
2017-10-30T18:01:32.690Z,9.66
2017-10-30T18:02:32.683Z,9.65
2017-10-30T18:03:32.678Z,9.62
2017-10-30T18:04:32.668Z,9.61
2017-10-30T18:05:32.667Z,9.68
2017-10-30T18:06:32.663Z,9.65
2017-10-30T18:07:32.656Z,9.65
2017-10-30T18:08:32.648Z,9.56
2017-10-30T18:09:32.644Z,9.51
2017-10-30T18:10:32.633Z,9.64
2017-10-30T18:11:32.630Z,9.50
2017-10-30T18:12:32.622Z,9.50
2017-10-30T18:13:32.615Z,9.50
2017-10-30T18:14:32.614Z,9.50
2017-10-30T18:15:32.610Z,9.50
2017-10-30T18:16:32.604Z,9.51
2017-10-30T18:17:32.597Z,9.54
2017-10-30T18:18:32.590Z,9.51
2017-10-30T18:19:32.576Z,9.54
2017-10-30T18:20:32.574Z,9.51
2017-10-30T18:21:32.571Z,9.48
2017-10-30T18:22:32.571Z,9.48
2017-10-30T18:23:32.558Z,9.47
2017-10-30T18:24:32.553Z,9.54
2017-10-30T18:25:32.549Z,9.50
2017-10-30T18:26:32.545Z,9.40
2017-10-30T18:27:32.536Z,9.41
2017-10-30T18:28:32.531Z,9.44
2017-10-30T18:29:32.524Z,9.41
2017-10-30T18:30:32.517Z,9.37
2017-10-30T18:31:32.510Z,9.39
2017-10-30T18:32:32.505Z,9.34
2017-10-30T18:33:32.500Z,9.36
2017-10-30T18:34:32.492Z,9.34
2017-10-30T18:35:32.486Z,9.29
2017-10-30T18:36:32.481Z,9.28
2017-10-30T18:37:32.473Z,9.32
2017-10-30T18:38:32.472Z,9.28
2017-10-30T18:39:32.462Z,9.21
2017-10-30T18:40:32.469Z,9.25
2017-10-30T18:41:32.454Z,9.31
2017-10-30T18:42:32.465Z,9.31
2017-10-30T18:43:32.440Z,9.29
2017-10-30T18:44:32.437Z,9.28
2017-10-30T18:45:32.429Z,9.28
2017-10-30T18:46:32.425Z,9.23
2017-10-30T18:47:32.413Z,9.19
2017-10-30T18:48:32.407Z,9.16
2017-10-30T18:49:32.403Z,9.19
2017-10-30T18:50:32.400Z,9.18
2017-10-30T18:51:32.386Z,9.21
2017-10-30T18:52:32.383Z,9.04
2017-10-30T18:53:32.368Z,9.10
2017-10-30T18:54:32.368Z,9.14
2017-10-30T18:55:32.365Z,9.04
2017-10-30T18:56:32.362Z,9.08
2017-10-30T18:57:32.353Z,9.00
2017-10-30T18:58:32.349Z,8.94
2017-10-30T18:59:32.338Z,8.94
2017-10-30T19:00:33.165Z,8.95
2017-10-30T19:01:32.325Z,8.97
2017-10-30T19:02:32.328Z,8.91
2017-10-30T19:03:32.314Z,8.82
2017-10-30T19:04:32.305Z,8.85
2017-10-30T19:05:33.161Z,8.84
2017-10-30T19:06:32.295Z,8.79
2017-10-30T19:07:32.291Z,8.74
2017-10-30T19:08:32.285Z,8.71
2017-10-30T19:09:32.278Z,8.69
2017-10-30T19:10:32.275Z,8.61
2017-10-30T19:11:32.269Z,8.63
2017-10-30T19:12:32.258Z,8.56
2017-10-30T19:13:32.254Z,8.53
2017-10-30T19:14:32.246Z,8.55
2017-10-30T19:15:32.234Z,8.60
2017-10-30T19:16:32.234Z,8.49
2017-10-30T19:17:32.229Z,8.46
2017-10-30T19:18:32.223Z,8.37
2017-10-30T19:19:32.213Z,8.38
2017-10-30T19:20:32.208Z,8.37
2017-10-30T19:21:32.199Z,8.41
2017-10-30T19:22:32.196Z,8.41
2017-10-30T19:23:32.188Z,8.36
2017-10-30T19:24:32.187Z,8.33
2017-10-30T19:25:32.181Z,8.23
2017-10-30T19:26:32.173Z,8.26
2017-10-30T19:27:32.163Z,8.26
2017-10-30T19:28:32.162Z,8.13
2017-10-30T19:29:32.160Z,8.13
2017-10-30T19:30:32.138Z,8.10
2017-10-30T19:31:32.134Z,8.10
2017-10-30T19:32:32.130Z,8.08
2017-10-30T19:33:32.124Z,8.06
2017-10-30T19:34:32.123Z,7.94
2017-10-30T19:35:32.112Z,8.03
2017-10-30T19:36:32.104Z,8.06
2017-10-30T19:37:32.100Z,8.05
2017-10-30T19:38:32.097Z,7.94
2017-10-30T19:39:32.085Z,8.00
2017-10-30T19:40:32.082Z,7.95
2017-10-30T19:41:32.070Z,8.01
2017-10-30T19:42:32.067Z,7.94
2017-10-30T19:43:32.061Z,7.95
2017-10-30T19:44:32.058Z,7.93
2017-10-30T19:45:32.046Z,7.98
2017-10-30T19:46:32.039Z,7.93
2017-10-30T19:47:32.026Z,7.95
2017-10-30T19:48:32.032Z,7.93
2017-10-30T19:49:32.023Z,7.85
2017-10-30T19:50:32.017Z,7.88
2017-10-30T19:51:32.009Z,7.93
2017-10-30T19:52:32.008Z,7.87
2017-10-30T19:53:31.996Z,7.88
2017-10-30T19:54:31.998Z,7.85
2017-10-30T19:55:31.982Z,7.82
2017-10-30T19:56:31.976Z,7.80
2017-10-30T19:57:31.970Z,7.82
2017-10-30T19:58:31.964Z,7.77
2017-10-30T19:59:31.956Z,7.76
2017-10-30T20:00:31.956Z,7.76
2017-10-30T20:01:31.944Z,7.79
2017-10-30T20:02:31.936Z,7.66
2017-10-30T20:03:31.925Z,7.70
2017-10-30T20:04:31.923Z,7.73
2017-10-30T20:05:31.917Z,7.66
2017-10-30T20:06:31.909Z,7.69
2017-10-30T20:07:31.915Z,7.63
2017-10-30T20:08:31.901Z,7.63
2017-10-30T20:09:31.890Z,7.66
2017-10-30T20:10:31.887Z,7.67
2017-10-30T20:11:31.873Z,7.66
2017-10-30T20:12:31.869Z,7.63
2017-10-30T20:13:31.865Z,7.67
2017-10-30T20:14:31.861Z,7.70
2017-10-30T20:15:31.851Z,7.66
2017-10-30T20:16:31.843Z,7.63
2017-10-30T20:17:31.835Z,7.57
2017-10-30T20:18:31.830Z,7.63
2017-10-30T20:19:31.826Z,7.66
2017-10-30T20:20:31.816Z,7.56
2017-10-30T20:21:31.803Z,7.51
2017-10-30T20:22:31.804Z,7.56
2017-10-30T20:23:31.798Z,7.60
2017-10-30T20:24:31.790Z,7.50
2017-10-30T20:25:31.782Z,7.50
2017-10-30T20:27:31.775Z,7.57
2017-10-30T20:28:31.776Z,7.51
2017-10-30T20:29:31.768Z,7.45
2017-10-30T20:30:31.762Z,7.42
2017-10-30T20:31:31.757Z,7.42
2017-10-30T20:32:31.749Z,7.42
2017-10-30T20:33:52.755Z,7.33
2017-10-30T20:34:31.736Z,7.39
2017-10-30T20:35:31.725Z,7.24
2017-10-30T20:36:31.718Z,7.25
2017-10-30T20:37:31.713Z,7.24
2017-10-30T20:38:31.711Z,7.23
2017-10-30T20:39:52.707Z,7.20
2017-10-30T20:40:31.693Z,7.13
2017-10-30T20:41:31.685Z,7.14
2017-10-30T20:42:31.678Z,7.13
2017-10-30T20:43:31.671Z,7.07
2017-10-30T20:44:31.685Z,7.07
2017-10-30T20:45:52.677Z,6.97
2017-10-30T20:46:31.663Z,6.99
2017-10-30T20:47:31.644Z,6.89
2017-10-30T20:48:31.641Z,6.89
2017-10-30T20:49:31.636Z,6.85
2017-10-30T20:50:31.629Z,6.81
2017-10-30T20:51:52.624Z,6.66
2017-10-30T20:52:31.609Z,6.66
2017-10-30T20:53:31.604Z,6.49
2017-10-30T20:54:31.595Z,6.60
2017-10-30T20:55:31.591Z,6.60
2017-10-30T20:56:32.276Z,6.51
2017-10-30T20:57:52.581Z,6.52
2017-10-30T20:58:31.572Z,6.42
2017-10-30T20:59:31.565Z,6.35
2017-10-30T21:00:31.560Z,6.35
2017-10-30T21:01:31.548Z,6.31
2017-10-30T21:02:31.544Z,6.30
2017-10-30T21:03:52.542Z,6.36
2017-10-30T21:04:31.534Z,6.28
2017-10-30T21:05:31.526Z,6.36
2017-10-30T21:06:31.517Z,6.28
2017-10-30T21:07:31.510Z,6.17
2017-10-30T21:08:31.504Z,6.12
2017-10-30T21:09:52.514Z,6.08
2017-10-30T21:10:31.485Z,6.05
2017-10-30T21:11:31.477Z,6.04
2017-10-30T21:12:31.476Z,6.08
2017-10-30T21:13:31.461Z,5.98
2017-10-30T21:14:31.470Z,5.99
2017-10-30T21:15:52.453Z,6.01
2017-10-30T21:16:31.445Z,6.02
2017-10-30T21:17:31.438Z,6.02
2017-10-30T21:18:31.437Z,5.94
2017-10-30T21:19:31.425Z,5.98
2017-10-30T21:20:31.418Z,5.94
2017-10-30T21:21:52.413Z,5.87
2017-10-30T21:22:31.417Z,5.83
2017-10-30T21:23:31.395Z,5.83
2017-10-30T21:24:31.413Z,5.86
2017-10-30T21:25:31.388Z,5.73
2017-10-30T21:26:31.396Z,5.72
2017-10-30T21:27:52.373Z,5.73
2017-10-30T21:28:31.357Z,5.66
2017-10-30T21:29:31.351Z,5.68
2017-10-30T21:30:31.344Z,5.53
2017-10-30T21:31:31.364Z,5.46
2017-10-30T21:32:31.358Z,5.39
2017-10-30T21:33:52.329Z,5.41
2017-10-30T21:34:31.322Z,5.38
2017-10-30T21:35:31.306Z,5.47
2017-10-30T21:36:31.300Z,5.46
2017-10-30T21:37:31.299Z,5.48
2017-10-30T21:38:31.285Z,5.38
2017-10-30T21:39:52.290Z,5.43
2017-10-30T21:40:31.275Z,5.53
2017-10-30T21:41:31.265Z,5.46
2017-10-30T21:42:31.260Z,5.44
2017-10-30T21:43:31.255Z,5.32
2017-10-30T21:44:31.249Z,5.46
2017-10-30T21:45:52.241Z,5.39
2017-10-30T21:46:31.230Z,5.33
2017-10-30T21:47:31.222Z,5.47
2017-10-30T21:48:31.216Z,5.46
2017-10-30T21:49:31.237Z,5.41
2017-10-30T21:50:31.205Z,5.33
2017-10-30T21:51:52.200Z,5.35
2017-10-30T21:52:31.190Z,5.35
2017-10-30T21:53:31.181Z,5.30
2017-10-30T21:54:31.173Z,5.33
2017-10-30T21:55:31.168Z,5.32
2017-10-30T21:56:31.155Z,5.32
2017-10-30T21:57:52.157Z,5.35
2017-10-30T21:58:31.142Z,5.28
2017-10-30T21:59:31.139Z,5.29
2017-10-30T22:00:31.134Z,5.29
2017-10-30T22:01:31.122Z,5.26
2017-10-30T22:02:31.120Z,5.36
2017-10-30T22:03:52.114Z,5.33
2017-10-30T22:04:31.100Z,5.21
2017-10-30T22:05:31.095Z,5.25
2017-10-30T22:06:31.090Z,5.25
2017-10-30T22:07:31.095Z,5.25
2017-10-30T22:08:31.073Z,5.29
2017-10-30T22:09:52.073Z,5.32
2017-10-30T22:10:31.059Z,5.26
2017-10-30T22:11:31.047Z,5.30
2017-10-30T22:12:31.042Z,5.18
2017-10-30T22:13:31.037Z,5.17
2017-10-30T22:14:31.040Z,5.23
2017-10-30T22:15:52.022Z,5.18
2017-10-30T22:16:31.009Z,5.11
2017-10-30T22:17:31.009Z,5.14
2017-10-30T22:18:31.007Z,5.11
2017-10-30T22:19:30.992Z,5.10
2017-10-30T22:20:30.984Z,5.14
2017-10-30T22:21:51.994Z,5.08
2017-10-30T22:22:30.968Z,5.11
2017-10-30T22:23:30.962Z,5.11
2017-10-30T22:24:30.955Z,5.05
2017-10-30T22:25:30.947Z,5.00
2017-10-30T22:26:30.940Z,5.05
2017-10-30T22:27:51.941Z,5.00
2017-10-30T22:28:30.924Z,5.02
2017-10-30T22:29:30.920Z,5.00
2017-10-30T22:30:30.910Z,5.02
2017-10-30T22:31:30.901Z,5.05
2017-10-30T22:32:30.891Z,5.05
2017-10-30T22:33:51.893Z,5.00
2017-10-30T22:34:30.887Z,5.00
2017-10-30T22:35:30.877Z,5.02
2017-10-30T22:36:30.879Z,5.00
2017-10-30T22:37:30.858Z,5.08
2017-10-30T22:38:30.849Z,5.18
2017-10-30T22:39:51.849Z,5.12
2017-10-30T22:40:30.831Z,5.17
2017-10-30T22:41:30.826Z,5.12
2017-10-30T22:42:30.824Z,5.08
2017-10-30T22:43:30.812Z,5.07
2017-10-30T22:44:30.807Z,5.17
2017-10-30T22:45:51.806Z,5.15
2017-10-30T22:46:30.794Z,5.15
2017-10-30T22:47:30.780Z,5.18
2017-10-30T22:48:30.775Z,5.11
2017-10-30T22:49:30.767Z,5.11
2017-10-30T22:50:30.771Z,5.05
2017-10-30T22:51:51.774Z,5.12
2017-10-30T22:52:30.752Z,5.17
2017-10-30T22:53:30.739Z,5.11
2017-10-30T22:54:30.738Z,5.08
2017-10-30T22:55:30.720Z,5.21
2017-10-30T22:56:30.712Z,5.07
2017-10-30T22:57:51.729Z,5.20
2017-10-30T22:58:30.700Z,5.11
2017-10-30T22:59:30.695Z,5.11
2017-10-30T23:00:30.682Z,5.08
2017-10-30T23:01:30.678Z,5.08
2017-10-30T23:02:30.675Z,5.05
2017-10-30T23:03:51.682Z,4.96
2017-10-30T23:04:30.655Z,5.08
2017-10-30T23:05:30.648Z,5.04
2017-10-30T23:06:30.642Z,4.97
2017-10-30T23:07:30.631Z,4.87
2017-10-30T23:08:30.624Z,4.94
2017-10-30T23:09:51.654Z,4.84
2017-10-30T23:10:30.607Z,4.89
2017-10-30T23:11:30.599Z,4.93
2017-10-30T23:12:30.596Z,4.94
2017-10-30T23:13:30.583Z,4.97
2017-10-30T23:14:30.589Z,4.86
2017-10-30T23:15:51.574Z,4.89
2017-10-30T23:16:30.561Z,4.86
2017-10-30T23:17:30.562Z,4.84
2017-10-30T23:18:30.545Z,4.82
2017-10-30T23:19:30.549Z,4.71
2017-10-30T23:20:30.532Z,4.73
2017-10-30T23:21:51.529Z,4.74
2017-10-30T23:22:30.515Z,4.74
2017-10-30T23:23:30.516Z,4.66
2017-10-30T23:24:30.501Z,4.77
2017-10-30T23:25:30.497Z,4.63
2017-10-30T23:26:30.486Z,4.66
2017-10-30T23:27:51.489Z,4.71
2017-10-30T23:28:30.471Z,4.60
2017-10-30T23:29:30.470Z,4.63
2017-10-30T23:30:30.459Z,4.63
2017-10-30T23:31:30.458Z,4.67
2017-10-30T23:32:30.439Z,4.58
2017-10-30T23:33:51.438Z,4.52
2017-10-30T23:34:30.425Z,4.55
2017-10-30T23:35:30.423Z,4.56
2017-10-30T23:36:30.405Z,4.55
2017-10-30T23:37:30.399Z,4.49
2017-10-30T23:38:30.398Z,4.44
2017-10-30T23:39:51.394Z,4.40
2017-10-30T23:40:30.378Z,4.37
2017-10-30T23:41:30.375Z,4.34
2017-10-30T23:42:30.362Z,4.28
2017-10-30T23:43:30.362Z,4.31
2017-10-30T23:44:30.348Z,4.26
2017-10-30T23:45:51.342Z,4.34
2017-10-30T23:46:30.331Z,4.41
2017-10-30T23:47:30.323Z,4.40
2017-10-30T23:48:30.316Z,4.37
2017-10-30T23:49:30.310Z,4.32
2017-10-30T23:50:30.314Z,4.37
2017-10-30T23:51:51.312Z,4.38
2017-10-30T23:52:30.283Z,4.34
2017-10-30T23:53:30.278Z,4.38
2017-10-30T23:54:30.270Z,4.41
2017-10-30T23:55:30.262Z,4.35
2017-10-30T23:56:30.255Z,4.44
2017-10-30T23:57:51.251Z,4.50
2017-10-30T23:58:30.247Z,4.56
2017-10-30T23:59:30.236Z,4.44
